createdAt,value
2022-08-04T00:00:40.432Z,2.97
2022-08-04T00:03:27.675Z,2.45
2022-08-04T00:06:05.462Z,2.25
2022-08-04T00:08:42.117Z,2.08
2022-08-04T00:11:15.376Z,2.28
2022-08-04T00:14:02.303Z,2.63
2022-08-04T00:16:38.704Z,2.22
2022-08-04T00:19:30.490Z,2.70
2022-08-04T00:22:01.010Z,2.05
2022-08-04T00:24:30.188Z,2.60
2022-08-04T00:26:57.267Z,2.47
2022-08-04T00:29:24.599Z,2.40
2022-08-04T00:31:56.443Z,2.50
2022-08-04T00:34:28.523Z,2.15
2022-08-04T00:36:55.740Z,2.27
2022-08-04T00:39:23.094Z,2.42
2022-08-04T00:42:19.108Z,2.30
2022-08-04T00:45:17.707Z,2.33
2022-08-04T00:48:10.717Z,2.45
2022-08-04T00:50:42.676Z,2.30
2022-08-04T00:53:28.004Z,2.05
2022-08-04T00:56:08.922Z,2.50
2022-08-04T00:59:09.664Z,2.42
2022-08-04T01:01:52.848Z,2.05
2022-08-04T01:04:42.162Z,2.10
2022-08-04T01:07:46.417Z,2.20
2022-08-04T01:10:42.254Z,1.88
2022-08-04T01:13:25.632Z,2.53
2022-08-04T01:15:56.354Z,1.95
2022-08-04T01:18:33.512Z,2.20
2022-08-04T01:21:11.256Z,2.00
2022-08-04T01:24:07.526Z,2.45
2022-08-04T01:26:57.682Z,2.10
2022-08-04T01:29:33.683Z,2.13
2022-08-04T01:32:21.072Z,2.17
2022-08-04T01:34:56.904Z,2.08
2022-08-04T01:37:41.841Z,2.45
2022-08-04T01:40:08.784Z,2.22
2022-08-04T01:42:36.944Z,2.03
2022-08-04T01:45:08.423Z,2.05
2022-08-04T01:47:37.752Z,2.22
2022-08-04T01:50:12.391Z,1.80
2022-08-04T01:52:40.609Z,2.20
2022-08-04T01:55:10.192Z,2.30
2022-08-04T01:57:45.931Z,2.47
2022-08-04T02:00:17.896Z,2.17
2022-08-04T02:02:45.768Z,2.20
2022-08-04T02:05:15.512Z,2.00
2022-08-04T02:08:01.298Z,2.08
2022-08-04T02:10:44.133Z,2.10
2022-08-04T02:13:33.551Z,2.03
2022-08-04T02:16:04.159Z,1.95
2022-08-04T02:18:41.557Z,2.13
2022-08-04T02:21:08.297Z,1.83
2022-08-04T02:23:37.279Z,2.08
2022-08-04T02:26:05.934Z,2.00
2022-08-04T02:28:36.170Z,2.10
2022-08-04T02:31:19.589Z,2.20
2022-08-04T02:33:52.734Z,2.20
2022-08-04T02:36:29.568Z,1.85
2022-08-04T02:38:59.524Z,1.85
2022-08-04T02:41:28.177Z,2.03
2022-08-04T02:44:02.520Z,2.00
2022-08-04T02:46:30.278Z,2.22
2022-08-04T02:48:57.454Z,2.30
2022-08-04T02:51:28.873Z,2.20
2022-08-04T02:53:57.824Z,2.00
2022-08-04T02:56:26.704Z,2.45
2022-08-04T02:58:58.435Z,2.30
2022-08-04T03:01:25.263Z,2.70
2022-08-04T03:04:00.695Z,2.20
2022-08-04T03:06:42.336Z,2.25
2022-08-04T03:09:24.703Z,2.10
2022-08-04T03:11:51.138Z,2.40
2022-08-04T03:14:51.667Z,2.15
2022-08-04T03:17:53.103Z,2.30
2022-08-04T03:20:50.591Z,2.47
2022-08-04T03:23:40.303Z,2.50
2022-08-04T03:26:25.192Z,2.00
2022-08-04T03:29:36.067Z,2.25
2022-08-04T03:32:12.995Z,2.60
2022-08-04T03:34:42.097Z,2.42
2022-08-04T03:37:15.539Z,2.30
2022-08-04T03:40:12.803Z,2.28
2022-08-04T03:42:51.634Z,2.47
2022-08-04T03:45:41.697Z,2.00
2022-08-04T03:48:44.785Z,2.50
2022-08-04T03:51:51.672Z,2.20
2022-08-04T03:54:32.507Z,2.47
2022-08-04T03:57:21.006Z,2.15
2022-08-04T03:59:57.280Z,2.35
2022-08-04T04:03:00.151Z,1.92
2022-08-04T04:08:45.197Z,2.53
2022-08-04T04:11:34.771Z,1.67
2022-08-04T04:14:48.271Z,2.20
2022-08-04T04:17:20.858Z,2.10
2022-08-04T04:20:00.622Z,1.63
2022-08-04T04:22:51.426Z,2.03
2022-08-04T04:25:27.063Z,1.90
2022-08-04T04:28:44.693Z,2.28
2022-08-04T04:31:43.609Z,2.03
2022-08-04T04:34:25.424Z,1.75
2022-08-04T04:37:13.260Z,2.40
2022-08-04T04:39:51.899Z,2.13
2022-08-04T04:42:39.535Z,2.22
2022-08-04T04:45:23.448Z,2.10
2022-08-04T04:48:07.742Z,2.13
2022-08-04T04:50:54.689Z,1.75
2022-08-04T04:53:29.957Z,1.77
2022-08-04T04:56:30.996Z,2.10
2022-08-04T04:58:58.595Z,2.20
2022-08-04T05:02:09.667Z,2.10
2022-08-04T05:04:55.121Z,2.75
2022-08-04T05:07:38.070Z,1.98
2022-08-04T05:10:38.660Z,2.28
2022-08-04T05:14:35.211Z,2.08
2022-08-04T05:16:56.310Z,2.17
2022-08-04T05:19:34.898Z,2.17
2022-08-04T05:22:09.188Z,2.35
2022-08-04T05:24:39.504Z,2.45
2022-08-04T05:27:15.712Z,1.98
2022-08-04T05:29:50.285Z,2.08
2022-08-04T05:32:18.005Z,2.45
2022-08-04T05:34:49.653Z,2.35
2022-08-04T05:37:17.674Z,2.53
2022-08-04T05:39:58.919Z,2.53
2022-08-04T05:42:26.382Z,2.28
2022-08-04T05:44:53.546Z,2.00
2022-08-04T05:47:22.406Z,1.90
2022-08-04T05:50:01.334Z,1.98
2022-08-04T05:52:29.751Z,2.17
2022-08-04T05:54:57.099Z,1.90
2022-08-04T05:57:24.915Z,2.05
2022-08-04T05:59:52.183Z,1.67
2022-08-04T06:02:19.424Z,1.92
2022-08-04T06:04:49.344Z,1.85
2022-08-04T06:07:16.163Z,2.40
2022-08-04T06:09:42.985Z,2.40
2022-08-04T06:12:22.213Z,1.80
2022-08-04T06:14:52.889Z,2.05
2022-08-04T06:19:56.722Z,2.22
2022-08-04T06:20:19.930Z,1.90
2022-08-04T06:22:53.057Z,1.95
2022-08-04T06:25:22.841Z,2.10
2022-08-04T06:27:50.074Z,2.00
2022-08-04T06:30:19.230Z,2.05
2022-08-04T06:33:03.351Z,1.95
2022-08-04T06:35:32.854Z,2.08
2022-08-04T06:38:01.157Z,2.03
2022-08-04T06:40:30.822Z,2.00
2022-08-04T06:43:04.404Z,2.33
2022-08-04T06:45:34.123Z,1.90
2022-08-04T06:48:01.057Z,2.22
2022-08-04T06:51:28.658Z,1.95
2022-08-04T06:53:14.945Z,2.08
2022-08-04T06:55:45.494Z,1.63
2022-08-04T06:58:13.175Z,1.73
2022-08-04T07:00:42.157Z,1.95
2022-08-04T07:03:08.795Z,1.77
2022-08-04T07:05:35.991Z,1.80
2022-08-04T07:08:03.241Z,1.92
2022-08-04T07:10:31.417Z,1.60
2022-08-04T07:12:59.180Z,1.90
2022-08-04T07:15:26.453Z,1.70
2022-08-04T07:17:54.018Z,1.60
2022-08-04T07:20:35.289Z,1.75
2022-08-04T07:23:06.596Z,1.60
2022-08-04T07:25:58.843Z,1.70
2022-08-04T07:28:26.789Z,1.73
2022-08-04T07:30:54.752Z,2.03
2022-08-04T07:33:22.153Z,2.00
2022-08-04T07:36:06.039Z,1.60
2022-08-04T07:38:48.621Z,1.75
2022-08-04T07:41:40.387Z,1.90
2022-08-04T07:44:07.942Z,2.20
2022-08-04T07:46:35.173Z,1.73
2022-08-04T07:49:01.792Z,1.92
2022-08-04T07:51:30.420Z,1.90
2022-08-04T07:53:57.812Z,1.90
2022-08-04T07:56:26.376Z,1.80
2022-08-04T07:58:53.110Z,1.52
2022-08-04T08:01:19.909Z,1.50
2022-08-04T08:03:47.356Z,1.40
2022-08-04T08:06:17.811Z,1.55
2022-08-04T08:09:00.934Z,1.65
2022-08-04T08:12:35.502Z,1.75
2022-08-04T08:14:25.641Z,2.25
2022-08-04T08:16:52.332Z,1.65
2022-08-04T08:19:18.973Z,1.67
2022-08-04T08:21:59.606Z,2.03
2022-08-04T08:24:28.457Z,2.07
2022-08-04T08:26:56.809Z,2.00
2022-08-04T08:29:24.616Z,1.55
2022-08-04T08:31:56.639Z,1.77
2022-08-04T08:34:28.029Z,1.80
2022-08-04T08:37:04.289Z,1.50
2022-08-04T08:39:45.101Z,1.75
2022-08-04T08:42:50.326Z,1.88
2022-08-04T08:45:28.673Z,2.13
2022-08-04T08:48:46.709Z,1.52
2022-08-04T08:51:40.353Z,1.98
2022-08-04T08:54:32.658Z,1.45
2022-08-04T08:57:24.548Z,1.90
2022-08-04T09:00:03.209Z,1.60
2022-08-04T09:02:41.933Z,1.55
2022-08-04T09:05:24.804Z,1.70
2022-08-04T09:08:09.600Z,1.80
2022-08-04T09:10:46.470Z,1.60
2022-08-04T09:13:48.351Z,1.38
2022-08-04T09:16:17.853Z,1.40
2022-08-04T09:18:55.129Z,1.65
2022-08-04T09:21:38.394Z,1.30
2022-08-04T09:24:35.189Z,2.15
2022-08-04T09:27:28.662Z,1.90
2022-08-04T09:30:02.071Z,1.40
2022-08-04T09:32:38.638Z,2.15
2022-08-04T09:35:20.280Z,1.73
2022-08-04T09:38:26.446Z,1.40
2022-08-04T09:41:20.982Z,1.70
2022-08-04T09:44:52.268Z,2.00
2022-08-04T09:47:13.805Z,1.90
2022-08-04T09:49:45.908Z,1.70
2022-08-04T09:52:27.943Z,1.50
2022-08-04T09:55:12.108Z,1.73
2022-08-04T09:58:00.523Z,1.77
2022-08-04T10:00:40.849Z,1.65
2022-08-04T10:03:11.577Z,1.30
2022-08-04T10:06:11.065Z,1.85
2022-08-04T10:09:11.651Z,1.88
2022-08-04T10:12:03.902Z,1.52
2022-08-04T10:15:08.094Z,1.73
2022-08-04T10:17:50.384Z,1.70
2022-08-04T10:20:46.423Z,1.70
2022-08-04T10:23:56.500Z,1.45
2022-08-04T10:26:31.736Z,2.10
2022-08-04T10:29:03.673Z,2.08
2022-08-04T10:31:34.068Z,1.90
2022-08-04T10:34:03.223Z,1.98
2022-08-04T10:36:41.256Z,1.63
2022-08-04T10:39:42.234Z,1.83
2022-08-04T10:42:17.556Z,1.73
2022-08-04T10:44:57.735Z,1.88
2022-08-04T10:47:26.634Z,1.83
2022-08-04T10:50:00.527Z,1.67
2022-08-04T10:52:34.360Z,2.28
2022-08-04T10:55:07.277Z,1.63
2022-08-04T10:57:47.324Z,1.80
2022-08-04T11:00:19.733Z,1.70
2022-08-04T11:03:05.776Z,1.58
2022-08-04T11:05:44.412Z,1.38
2022-08-04T11:08:24.717Z,1.63
2022-08-04T11:11:22.238Z,1.50
2022-08-04T11:13:54.674Z,1.58
2022-08-04T11:16:24.455Z,1.88
2022-08-04T11:19:08.837Z,1.40
2022-08-04T11:21:40.348Z,1.58
2022-08-04T11:24:26.252Z,1.33
2022-08-04T11:27:01.473Z,1.77
2022-08-04T11:30:06.517Z,1.58
2022-08-04T11:32:47.417Z,1.50
2022-08-04T11:35:27.901Z,1.85
2022-08-04T11:38:52.477Z,1.70
2022-08-04T11:41:23.478Z,1.58
2022-08-04T11:44:03.221Z,1.70
2022-08-04T11:46:40.047Z,1.67
2022-08-04T11:49:57.562Z,1.70
2022-08-04T11:52:22.196Z,2.13
2022-08-04T11:54:52.738Z,1.60
2022-08-04T11:57:22.852Z,1.65
2022-08-04T12:00:07.750Z,1.65
2022-08-04T12:02:57.224Z,1.60
2022-08-04T12:05:37.865Z,2.08
2022-08-04T12:08:22.279Z,2.08
2022-08-04T12:11:11.015Z,1.80
2022-08-04T12:14:05.046Z,2.13
2022-08-04T12:16:53.989Z,1.52
2022-08-04T12:19:54.730Z,1.85
2022-08-04T12:22:25.116Z,1.77
2022-08-04T12:25:08.063Z,1.52
2022-08-04T12:27:42.902Z,1.80
2022-08-04T12:30:59.636Z,1.70
2022-08-04T12:34:03.021Z,1.77
2022-08-04T12:36:20.947Z,1.95
2022-08-04T12:39:10.387Z,1.70
2022-08-04T12:41:42.285Z,1.70
2022-08-04T12:47:36.493Z,1.88
2022-08-04T12:49:48.131Z,1.90
2022-08-04T12:52:51.806Z,4.05
2022-08-04T12:55:15.592Z,2.42
2022-08-04T12:57:42.791Z,2.10
2022-08-04T13:00:10.886Z,2.10
2022-08-04T13:02:48.127Z,1.42
2022-08-04T13:05:17.118Z,1.95
2022-08-04T13:07:53.317Z,1.58
2022-08-04T13:10:30.393Z,1.65
2022-08-04T13:12:59.202Z,1.75
2022-08-04T13:15:28.008Z,1.70
2022-08-04T13:18:05.231Z,2.40
2022-08-04T13:20:42.449Z,1.98
2022-08-04T13:23:12.347Z,1.83
2022-08-04T13:26:45.048Z,3.88
2022-08-04T13:28:32.312Z,1.83
2022-08-04T13:31:00.647Z,1.88
2022-08-04T13:33:36.072Z,1.80
2022-08-04T13:36:03.869Z,2.10
2022-08-04T13:38:31.520Z,1.50
2022-08-04T13:41:02.449Z,1.67
2022-08-04T13:44:16.492Z,1.88
2022-08-04T13:46:27.787Z,1.58
2022-08-04T13:52:04.672Z,1.90
2022-08-04T13:54:45.129Z,1.67
2022-08-04T13:57:15.922Z,1.60
2022-08-04T13:59:45.798Z,1.83
2022-08-04T14:02:26.173Z,1.70
2022-08-04T14:04:57.241Z,1.90
2022-08-04T14:07:25.699Z,1.88
2022-08-04T14:10:02.921Z,1.70
2022-08-04T14:12:45.830Z,1.55
2022-08-04T14:15:54.946Z,1.90
2022-08-04T14:18:25.664Z,2.00
2022-08-04T14:21:09.319Z,1.77
2022-08-04T14:23:47.212Z,1.95
2022-08-04T14:26:18.840Z,1.83
2022-08-04T14:29:25.475Z,2.20
2022-08-04T14:31:32.354Z,1.98
2022-08-04T14:34:04.345Z,1.95
2022-08-04T14:36:49.589Z,1.73
2022-08-04T14:40:07.885Z,1.80
2022-08-04T14:42:54.696Z,1.95
2022-08-04T14:45:37.330Z,2.33
2022-08-04T14:48:18.802Z,1.60
2022-08-04T14:50:48.410Z,1.98
2022-08-04T14:53:17.361Z,1.80
2022-08-04T14:55:56.805Z,2.00
2022-08-04T14:58:35.009Z,1.80
2022-08-04T15:01:10.295Z,2.40
2022-08-04T15:03:50.133Z,1.83
2022-08-04T15:06:23.219Z,2.00
2022-08-04T15:08:51.241Z,1.90
2022-08-04T15:11:23.171Z,1.85
2022-08-04T15:13:50.582Z,2.00
2022-08-04T15:16:17.351Z,1.67
2022-08-04T15:18:44.138Z,1.70
2022-08-04T15:21:16.043Z,2.05
2022-08-04T15:23:42.683Z,1.90
2022-08-04T15:26:15.642Z,1.80
2022-08-04T15:28:48.783Z,1.95
2022-08-04T15:32:05.338Z,1.85
2022-08-04T15:34:02.636Z,1.85
2022-08-04T15:36:56.297Z,2.08
2022-08-04T15:39:39.214Z,1.52
2022-08-04T15:42:24.047Z,1.70
2022-08-04T15:45:13.693Z,1.98
2022-08-04T15:47:40.947Z,1.80
2022-08-04T15:50:12.222Z,1.92
2022-08-04T15:53:01.206Z,1.80
2022-08-04T15:55:39.586Z,2.15
2022-08-04T15:58:07.964Z,2.00
2022-08-04T16:00:49.858Z,2.05
2022-08-04T16:03:58.502Z,1.95
2022-08-04T16:06:20.872Z,1.77
2022-08-04T16:08:47.289Z,1.92
2022-08-04T16:11:31.499Z,1.50
2022-08-04T16:13:58.653Z,2.00
2022-08-04T16:16:31.513Z,2.00
2022-08-04T16:19:16.763Z,1.98
2022-08-04T16:21:54.491Z,1.85
2022-08-04T16:24:21.887Z,2.10
2022-08-04T16:27:08.454Z,2.15
2022-08-04T16:29:38.068Z,1.77
2022-08-04T16:32:04.780Z,1.90
2022-08-04T16:34:49.857Z,1.95
2022-08-04T16:37:19.065Z,1.90
2022-08-04T16:39:49.975Z,2.40
2022-08-04T16:42:30.293Z,2.33
2022-08-04T16:45:09.228Z,2.03
2022-08-04T16:47:48.363Z,1.70
2022-08-04T16:50:23.032Z,1.80
2022-08-04T16:52:54.229Z,2.03
2022-08-04T16:55:25.532Z,2.30
2022-08-04T16:57:55.858Z,2.15
2022-08-04T17:00:36.192Z,1.92
2022-08-04T17:03:06.811Z,1.88
2022-08-04T17:05:39.409Z,2.05
2022-08-04T17:10:55.998Z,2.17
2022-08-04T17:14:02.466Z,1.98
2022-08-04T17:16:18.818Z,2.08
2022-08-04T17:18:51.083Z,2.00
2022-08-04T17:21:30.224Z,1.80
2022-08-04T17:24:13.130Z,2.10
2022-08-04T17:26:45.259Z,2.30
2022-08-04T17:29:20.066Z,1.85
2022-08-04T17:31:46.863Z,2.20
2022-08-04T17:34:16.752Z,1.80
2022-08-04T17:36:46.153Z,1.88
2022-08-04T17:39:21.358Z,1.80
2022-08-04T17:41:49.061Z,1.83
2022-08-04T17:44:16.614Z,2.10
2022-08-04T17:46:48.423Z,2.10
2022-08-04T17:49:18.215Z,1.98
2022-08-04T17:52:05.298Z,2.20
2022-08-04T17:54:37.293Z,2.17
2022-08-04T17:57:20.137Z,2.10
2022-08-04T17:59:59.296Z,2.05
2022-08-04T18:02:32.533Z,1.80
2022-08-04T18:05:07.884Z,2.33
2022-08-04T18:08:38.682Z,2.00
2022-08-04T18:10:52.651Z,1.85
2022-08-04T18:13:26.948Z,2.05
2022-08-04T18:16:09.010Z,2.33
2022-08-04T18:18:41.393Z,2.10
2022-08-04T18:21:15.719Z,2.60
2022-08-04T18:23:51.109Z,2.13
2022-08-04T18:26:18.192Z,2.35
2022-08-04T18:28:50.618Z,2.35
2022-08-04T18:31:17.152Z,2.38
2022-08-04T18:33:43.743Z,2.10
2022-08-04T18:36:34.558Z,2.17
2022-08-04T18:39:12.444Z,2.05
2022-08-04T18:42:01.771Z,2.08
2022-08-04T18:44:51.927Z,2.13
2022-08-04T18:47:23.093Z,2.20
2022-08-04T18:50:40.214Z,2.33
2022-08-04T18:52:42.105Z,2.00
2022-08-04T18:55:13.299Z,2.38
2022-08-04T18:58:01.462Z,1.95
2022-08-04T19:00:32.735Z,2.10
2022-08-04T19:03:01.164Z,2.65
2022-08-04T19:05:37.792Z,2.50
2022-08-04T19:10:59.649Z,2.03
2022-08-04T19:13:27.857Z,2.35
2022-08-04T19:15:55.675Z,2.60
2022-08-04T19:18:25.583Z,2.72
2022-08-04T19:20:55.383Z,2.50
2022-08-04T19:24:29.532Z,2.83
2022-08-04T19:26:23.744Z,2.30
2022-08-04T19:28:54.991Z,2.40
2022-08-04T19:31:28.203Z,2.60
2022-08-04T19:34:04.730Z,2.65
2022-08-04T19:36:34.544Z,3.85
2022-08-04T19:39:11.604Z,4.15
2022-08-04T19:42:04.835Z,5.57
2022-08-04T19:44:25.098Z,7.05
2022-08-04T19:46:57.176Z,6.05
2022-08-04T19:50:03.202Z,3.58
2022-08-04T19:52:14.596Z,3.40
2022-08-04T19:55:00.188Z,2.70
2022-08-04T19:57:37.976Z,3.28
2022-08-04T20:00:10.088Z,2.80
2022-08-04T20:02:37.332Z,3.10
2022-08-04T20:05:08.646Z,3.22
2022-08-04T20:07:35.653Z,2.90
2022-08-04T20:10:04.804Z,2.85
2022-08-04T20:12:31.872Z,2.60
2022-08-04T20:14:59.604Z,2.38
2022-08-04T20:20:13.514Z,3.38
2022-08-04T20:22:52.854Z,2.92
2022-08-04T20:25:36.741Z,2.97
2022-08-04T20:28:04.907Z,3.53
2022-08-04T20:30:33.160Z,3.08
2022-08-04T20:33:01.128Z,3.58
2022-08-04T20:35:29.316Z,3.15
2022-08-04T20:38:00.749Z,3.60
2022-08-04T20:40:28.756Z,3.45
2022-08-04T20:42:57.412Z,3.42
2022-08-04T20:45:56.861Z,3.30
2022-08-04T20:48:11.673Z,3.47
2022-08-04T20:50:38.218Z,3.05
2022-08-04T20:53:16.844Z,3.47
2022-08-04T20:55:47.271Z,3.20
2022-08-04T20:58:27.591Z,3.40
2022-08-04T21:03:21.516Z,3.55
2022-08-04T21:06:08.522Z,3.13
2022-08-04T21:08:35.081Z,3.60
2022-08-04T21:11:03.161Z,3.35
2022-08-04T21:13:52.263Z,2.67
2022-08-04T21:16:55.072Z,2.95
2022-08-04T21:19:13.484Z,3.05
2022-08-04T21:21:41.328Z,2.95
2022-08-04T21:24:09.317Z,3.30
2022-08-04T21:26:36.053Z,3.17
2022-08-04T21:29:04.624Z,3.53
2022-08-04T21:31:32.545Z,3.30
2022-08-04T21:34:17.099Z,3.13
2022-08-04T21:37:03.907Z,3.17
2022-08-04T21:39:32.635Z,2.88
2022-08-04T21:44:46.567Z,3.75
2022-08-04T21:47:45.916Z,3.10
2022-08-04T21:50:06.603Z,2.97
2022-08-04T21:52:33.413Z,3.55
2022-08-04T21:54:59.967Z,3.25
2022-08-04T21:57:27.480Z,3.08
2022-08-04T21:59:54.695Z,3.38
2022-08-04T22:02:21.924Z,2.85
2022-08-04T22:04:49.510Z,2.90
2022-08-04T22:07:16.899Z,3.30
2022-08-04T22:10:02.283Z,3.05
2022-08-04T22:12:30.378Z,2.83
2022-08-04T22:14:59.709Z,3.47
2022-08-04T22:17:35.211Z,3.25
2022-08-04T22:20:03.935Z,3.05
2022-08-04T22:22:34.347Z,2.58
2022-08-04T22:25:12.424Z,3.30
2022-08-04T22:28:00.837Z,4.22
2022-08-04T22:30:33.160Z,3.33
2022-08-04T22:33:04.624Z,3.28
2022-08-04T22:35:43.688Z,2.97
2022-08-04T22:38:24.080Z,2.88
2022-08-04T22:41:05.419Z,3.50
2022-08-04T22:43:34.549Z,3.38
2022-08-04T22:46:05.408Z,3.50
2022-08-04T22:48:34.766Z,3.40
2022-08-04T22:51:03.008Z,2.80
2022-08-04T22:53:30.377Z,3.20
2022-08-04T22:56:09.781Z,3.33
2022-08-04T22:58:40.085Z,3.28
2022-08-04T23:01:08.290Z,3.25
2022-08-04T23:03:37.501Z,3.88
2022-08-04T23:06:10.957Z,3.03
2022-08-04T23:08:39.213Z,3.22
2022-08-04T23:11:10.628Z,3.00
2022-08-04T23:13:37.731Z,3.00
2022-08-04T23:16:10.197Z,3.00
2022-08-04T23:18:40.221Z,3.10
2022-08-04T23:21:09.843Z,3.33
2022-08-04T23:23:37.082Z,3.53
2022-08-04T23:26:15.789Z,3.38
2022-08-04T23:28:43.310Z,3.47
2022-08-04T23:31:10.059Z,3.47
2022-08-04T23:33:51.421Z,3.33
2022-08-04T23:36:26.412Z,3.70
2022-08-04T23:39:03.925Z,3.75
2022-08-04T23:41:55.460Z,3.53
2022-08-04T23:44:25.119Z,3.38
2022-08-04T23:47:04.004Z,3.40
2022-08-04T23:49:43.543Z,3.50
2022-08-04T23:52:28.140Z,3.20
2022-08-04T23:54:58.649Z,3.75
2022-08-04T23:58:02.572Z,3.65
